sensor_id;sensor_type;location;lat;lon;timestamp;temperature;humidity
69598;SHT31;70000;51.176;-115.568;2023-05-15T00:00:44;30.21;18.78
69598;SHT31;70000;51.176;-115.568;2023-05-15T00:13:57;30.46;18.43
69598;SHT31;70000;51.176;-115.568;2023-05-15T00:17:18;30.61;18.69
69598;SHT31;70000;51.176;-115.568;2023-05-15T00:28:05;30.92;20.98
69598;SHT31;70000;51.176;-115.568;2023-05-15T00:30:49;30.98;21.10
69598;SHT31;70000;51.176;-115.568;2023-05-15T00:33:27;30.99;20.48
69598;SHT31;70000;51.176;-115.568;2023-05-15T00:35:57;31.00;20.61
69598;SHT31;70000;51.176;-115.568;2023-05-15T00:38:30;31.07;21.41
69598;SHT31;70000;51.176;-115.568;2023-05-15T00:41:05;31.19;20.68
69598;SHT31;70000;51.176;-115.568;2023-05-15T00:43:51;31.21;20.80
69598;SHT31;70000;51.176;-115.568;2023-05-15T00:50:16;31.33;19.54
69598;SHT31;70000;51.176;-115.568;2023-05-15T01:04:36;30.85;19.21
69598;SHT31;70000;51.176;-115.568;2023-05-15T01:08:07;30.70;19.26
69598;SHT31;70000;51.176;-115.568;2023-05-15T01:11:53;30.47;19.26
69598;SHT31;70000;51.176;-115.568;2023-05-15T01:15:31;30.13;20.07
69598;SHT31;70000;51.176;-115.568;2023-05-15T01:22:34;29.68;25.09
69598;SHT31;70000;51.176;-115.568;2023-05-15T01:26:14;29.51;25.14
69598;SHT31;70000;51.176;-115.568;2023-05-15T01:48:38;28.45;23.55
69598;SHT31;70000;51.176;-115.568;2023-05-15T01:52:09;28.27;22.87
69598;SHT31;70000;51.176;-115.568;2023-05-15T01:58:18;27.94;23.72
69598;SHT31;70000;51.176;-115.568;2023-05-15T02:01:48;27.69;23.51
69598;SHT31;70000;51.176;-115.568;2023-05-15T02:07:56;27.23;23.80
69598;SHT31;70000;51.176;-115.568;2023-05-15T02:14:15;26.84;24.78
69598;SHT31;70000;51.176;-115.568;2023-05-15T02:20:02;26.59;25.51
69598;SHT31;70000;51.176;-115.568;2023-05-15T02:23:02;26.50;25.99
69598;SHT31;70000;51.176;-115.568;2023-05-15T02:26:36;26.34;25.77
69598;SHT31;70000;51.176;-115.568;2023-05-15T02:33:34;26.01;26.87
69598;SHT31;70000;51.176;-115.568;2023-05-15T02:36:39;26.02;27.14
69598;SHT31;70000;51.176;-115.568;2023-05-15T02:39:17;26.02;27.36
69598;SHT31;70000;51.176;-115.568;2023-05-15T02:42:26;25.97;27.61
69598;SHT31;70000;51.176;-115.568;2023-05-15T02:49:05;25.46;27.59
69598;SHT31;70000;51.176;-115.568;2023-05-15T02:52:56;25.24;27.80
69598;SHT31;70000;51.176;-115.568;2023-05-15T03:02:59;24.71;28.65
69598;SHT31;70000;51.176;-115.568;2023-05-15T03:06:24;24.57;28.69
69598;SHT31;70000;51.176;-115.568;2023-05-15T03:12:47;24.26;29.10
69598;SHT31;70000;51.176;-115.568;2023-05-15T03:16:01;24.13;29.45
69598;SHT31;70000;51.176;-115.568;2023-05-15T03:19:15;23.97;29.78
69598;SHT31;70000;51.176;-115.568;2023-05-15T03:22:36;23.81;30.16
69598;SHT31;70000;51.176;-115.568;2023-05-15T03:26:06;23.65;30.18
69598;SHT31;70000;51.176;-115.568;2023-05-15T03:28:58;23.56;30.45
69598;SHT31;70000;51.176;-115.568;2023-05-15T03:32:03;23.46;30.60
69598;SHT31;70000;51.176;-115.568;2023-05-15T03:34:49;23.34;30.70
69598;SHT31;70000;51.176;-115.568;2023-05-15T03:41:05;23.14;31.33
69598;SHT31;70000;51.176;-115.568;2023-05-15T03:43:45;23.05;31.19
69598;SHT31;70000;51.176;-115.568;2023-05-15T03:53:11;22.76;32.11
69598;SHT31;70000;51.176;-115.568;2023-05-15T03:55:42;22.68;32.16
69598;SHT31;70000;51.176;-115.568;2023-05-15T03:58:37;22.59;32.33
69598;SHT31;70000;51.176;-115.568;2023-05-15T04:01:40;22.49;32.54
69598;SHT31;70000;51.176;-115.568;2023-05-15T04:07:50;22.27;33.01
69598;SHT31;70000;51.176;-115.568;2023-05-15T04:10:44;22.17;33.40
69598;SHT31;70000;51.176;-115.568;2023-05-15T04:13:26;22.08;33.45
69598;SHT31;70000;51.176;-115.568;2023-05-15T04:16:17;21.99;33.76
69598;SHT31;70000;51.176;-115.568;2023-05-15T04:19:25;21.94;33.80
69598;SHT31;70000;51.176;-115.568;2023-05-15T04:21:57;21.88;33.89
69598;SHT31;70000;51.176;-115.568;2023-05-15T04:24:44;21.81;34.15
69598;SHT31;70000;51.176;-115.568;2023-05-15T04:27:39;21.75;34.15
69598;SHT31;70000;51.176;-115.568;2023-05-15T04:30:43;21.70;34.35
69598;SHT31;70000;51.176;-115.568;2023-05-15T04:36:39;21.56;34.46
69598;SHT31;70000;51.176;-115.568;2023-05-15T04:39:18;21.49;34.69
69598;SHT31;70000;51.176;-115.568;2023-05-15T04:42:57;21.42;34.78
69598;SHT31;70000;51.176;-115.568;2023-05-15T04:48:46;21.22;35.07
69598;SHT31;70000;51.176;-115.568;2023-05-15T04:51:33;21.14;35.26
69598;SHT31;70000;51.176;-115.568;2023-05-15T04:54:22;21.05;35.63
69598;SHT31;70000;51.176;-115.568;2023-05-15T04:57:12;20.97;35.78
69598;SHT31;70000;51.176;-115.568;2023-05-15T04:59:44;20.84;35.53
69598;SHT31;70000;51.176;-115.568;2023-05-15T05:02:20;20.69;35.56
69598;SHT31;70000;51.176;-115.568;2023-05-15T05:04:50;20.58;35.66
69598;SHT31;70000;51.176;-115.568;2023-05-15T05:07:31;20.43;35.95
69598;SHT31;70000;51.176;-115.568;2023-05-15T05:10:12;20.27;36.14
69598;SHT31;70000;51.176;-115.568;2023-05-15T05:13:05;20.17;36.50
69598;SHT31;70000;51.176;-115.568;2023-05-15T05:15:34;20.09;36.60
69598;SHT31;70000;51.176;-115.568;2023-05-15T05:18:12;19.95;36.85
69598;SHT31;70000;51.176;-115.568;2023-05-15T05:20:57;19.83;37.04
69598;SHT31;70000;51.176;-115.568;2023-05-15T05:23:31;19.69;37.26
69598;SHT31;70000;51.176;-115.568;2023-05-15T05:26:14;19.59;37.39
69598;SHT31;70000;51.176;-115.568;2023-05-15T05:28:46;19.50;37.55
69598;SHT31;70000;51.176;-115.568;2023-05-15T05:31:16;19.39;37.62
69598;SHT31;70000;51.176;-115.568;2023-05-15T05:33:45;19.30;37.78
69598;SHT31;70000;51.176;-115.568;2023-05-15T05:36:16;19.22;37.72
69598;SHT31;70000;51.176;-115.568;2023-05-15T05:38:45;19.12;37.79
69598;SHT31;70000;51.176;-115.568;2023-05-15T05:41:27;19.01;38.09
69598;SHT31;70000;51.176;-115.568;2023-05-15T05:43:57;18.92;38.25
69598;SHT31;70000;51.176;-115.568;2023-05-15T05:46:26;18.82;38.24
69598;SHT31;70000;51.176;-115.568;2023-05-15T05:48:58;18.74;38.36
69598;SHT31;70000;51.176;-115.568;2023-05-15T05:51:37;18.64;38.52
69598;SHT31;70000;51.176;-115.568;2023-05-15T05:54:06;18.56;38.70
69598;SHT31;70000;51.176;-115.568;2023-05-15T05:56:40;18.49;38.88
69598;SHT31;70000;51.176;-115.568;2023-05-15T05:59:10;18.42;39.44
69598;SHT31;70000;51.176;-115.568;2023-05-15T06:01:42;18.37;40.00
69598;SHT31;70000;51.176;-115.568;2023-05-15T06:04:21;18.30;39.96
69598;SHT31;70000;51.176;-115.568;2023-05-15T06:07:09;18.22;39.58
69598;SHT31;70000;51.176;-115.568;2023-05-15T06:09:38;18.14;39.54
69598;SHT31;70000;51.176;-115.568;2023-05-15T06:12:07;18.07;39.62
69598;SHT31;70000;51.176;-115.568;2023-05-15T06:14:36;17.98;39.67
69598;SHT31;70000;51.176;-115.568;2023-05-15T06:17:06;17.92;39.72
69598;SHT31;70000;51.176;-115.568;2023-05-15T06:19:47;17.82;39.81
69598;SHT31;70000;51.176;-115.568;2023-05-15T06:22:20;17.68;40.12
69598;SHT31;70000;51.176;-115.568;2023-05-15T06:24:52;17.59;40.42
69598;SHT31;70000;51.176;-115.568;2023-05-15T06:27:23;17.51;40.72
69598;SHT31;70000;51.176;-115.568;2023-05-15T06:29:55;17.42;40.98
69598;SHT31;70000;51.176;-115.568;2023-05-15T06:32:24;17.36;41.13
69598;SHT31;70000;51.176;-115.568;2023-05-15T06:35:03;17.31;41.25
69598;SHT31;70000;51.176;-115.568;2023-05-15T06:37:33;17.25;41.39
69598;SHT31;70000;51.176;-115.568;2023-05-15T06:40:03;17.21;41.58
69598;SHT31;70000;51.176;-115.568;2023-05-15T06:42:37;17.18;41.60
69598;SHT31;70000;51.176;-115.568;2023-05-15T06:45:09;17.15;41.69
69598;SHT31;70000;51.176;-115.568;2023-05-15T06:47:42;17.09;41.90
69598;SHT31;70000;51.176;-115.568;2023-05-15T06:50:14;17.01;41.95
69598;SHT31;70000;51.176;-115.568;2023-05-15T06:52:46;16.88;42.15
69598;SHT31;70000;51.176;-115.568;2023-05-15T06:55:21;16.75;42.26
69598;SHT31;70000;51.176;-115.568;2023-05-15T06:57:50;16.67;42.38
69598;SHT31;70000;51.176;-115.568;2023-05-15T07:00:19;16.59;42.51
69598;SHT31;70000;51.176;-115.568;2023-05-15T07:02:48;16.50;42.63
69598;SHT31;70000;51.176;-115.568;2023-05-15T07:05:18;16.41;42.86
69598;SHT31;70000;51.176;-115.568;2023-05-15T07:07:49;16.32;43.04
69598;SHT31;70000;51.176;-115.568;2023-05-15T07:10:21;16.27;43.21
69598;SHT31;70000;51.176;-115.568;2023-05-15T07:12:51;16.20;43.42
69598;SHT31;70000;51.176;-115.568;2023-05-15T07:15:24;16.17;43.39
69598;SHT31;70000;51.176;-115.568;2023-05-15T07:17:53;16.10;43.37
69598;SHT31;70000;51.176;-115.568;2023-05-15T07:20:22;16.02;43.45
69598;SHT31;70000;51.176;-115.568;2023-05-15T07:22:56;15.93;43.52
69598;SHT31;70000;51.176;-115.568;2023-05-15T07:25:25;15.85;43.77
69598;SHT31;70000;51.176;-115.568;2023-05-15T07:27:55;15.80;43.84
69598;SHT31;70000;51.176;-115.568;2023-05-15T07:30:24;15.76;44.05
69598;SHT31;70000;51.176;-115.568;2023-05-15T07:32:54;15.70;44.17
69598;SHT31;70000;51.176;-115.568;2023-05-15T07:35:27;15.63;44.21
69598;SHT31;70000;51.176;-115.568;2023-05-15T07:37:56;15.56;44.30
69598;SHT31;70000;51.176;-115.568;2023-05-15T07:40:26;15.49;44.43
69598;SHT31;70000;51.176;-115.568;2023-05-15T07:43:18;15.41;44.43
69598;SHT31;70000;51.176;-115.568;2023-05-15T07:45:57;15.34;44.61
69598;SHT31;70000;51.176;-115.568;2023-05-15T07:48:26;15.31;44.70
69598;SHT31;70000;51.176;-115.568;2023-05-15T07:51:00;15.24;44.93
69598;SHT31;70000;51.176;-115.568;2023-05-15T07:53:45;15.21;45.01
69598;SHT31;70000;51.176;-115.568;2023-05-15T07:56:23;15.15;45.14
69598;SHT31;70000;51.176;-115.568;2023-05-15T07:59:17;15.10;45.20
69598;SHT31;70000;51.176;-115.568;2023-05-15T08:01:46;15.05;45.30
69598;SHT31;70000;51.176;-115.568;2023-05-15T08:04:18;14.99;45.37
69598;SHT31;70000;51.176;-115.568;2023-05-15T08:06:48;14.90;45.47
69598;SHT31;70000;51.176;-115.568;2023-05-15T08:09:48;14.82;45.58
69598;SHT31;70000;51.176;-115.568;2023-05-15T08:12:21;14.74;45.51
69598;SHT31;70000;51.176;-115.568;2023-05-15T08:14:56;14.64;45.55
69598;SHT31;70000;51.176;-115.568;2023-05-15T08:17:26;14.55;45.69
69598;SHT31;70000;51.176;-115.568;2023-05-15T08:19:58;14.49;45.76
69598;SHT31;70000;51.176;-115.568;2023-05-15T08:22:27;14.41;45.99
69598;SHT31;70000;51.176;-115.568;2023-05-15T08:24:57;14.33;46.22
69598;SHT31;70000;51.176;-115.568;2023-05-15T08:27:27;14.24;46.35
69598;SHT31;70000;51.176;-115.568;2023-05-15T08:29:56;14.19;46.56
69598;SHT31;70000;51.176;-115.568;2023-05-15T08:32:35;14.12;46.76
69598;SHT31;70000;51.176;-115.568;2023-05-15T08:35:10;14.07;46.94
69598;SHT31;70000;51.176;-115.568;2023-05-15T08:37:40;14.01;47.04
69598;SHT31;70000;51.176;-115.568;2023-05-15T08:40:13;13.96;47.20
69598;SHT31;70000;51.176;-115.568;2023-05-15T08:43:02;13.89;47.37
69598;SHT31;70000;51.176;-115.568;2023-05-15T08:45:43;13.84;47.59
69598;SHT31;70000;51.176;-115.568;2023-05-15T08:48:13;13.77;47.70
69598;SHT31;70000;51.176;-115.568;2023-05-15T08:50:48;13.68;47.80
69598;SHT31;70000;51.176;-115.568;2023-05-15T08:53:21;13.62;47.97
69598;SHT31;70000;51.176;-115.568;2023-05-15T08:56:05;13.56;48.16
69598;SHT31;70000;51.176;-115.568;2023-05-15T08:58:35;13.51;48.28
69598;SHT31;70000;51.176;-115.568;2023-05-15T09:01:09;13.48;48.45
69598;SHT31;70000;51.176;-115.568;2023-05-15T09:03:43;13.42;48.59
69598;SHT31;70000;51.176;-115.568;2023-05-15T09:06:13;13.33;48.68
69598;SHT31;70000;51.176;-115.568;2023-05-15T09:08:43;13.28;48.97
69598;SHT31;70000;51.176;-115.568;2023-05-15T09:11:13;13.20;49.20
69598;SHT31;70000;51.176;-115.568;2023-05-15T09:13:46;13.15;49.21
69598;SHT31;70000;51.176;-115.568;2023-05-15T09:16:17;13.07;49.49
69598;SHT31;70000;51.176;-115.568;2023-05-15T09:18:55;13.01;49.79
69598;SHT31;70000;51.176;-115.568;2023-05-15T09:21:40;12.94;49.96
69598;SHT31;70000;51.176;-115.568;2023-05-15T09:24:21;12.91;50.09
69598;SHT31;70000;51.176;-115.568;2023-05-15T09:27:06;12.85;50.14
69598;SHT31;70000;51.176;-115.568;2023-05-15T09:29:39;12.81;50.25
69598;SHT31;70000;51.176;-115.568;2023-05-15T09:32:20;12.76;50.41
69598;SHT31;70000;51.176;-115.568;2023-05-15T09:34:54;12.72;50.55
69598;SHT31;70000;51.176;-115.568;2023-05-15T09:37:30;12.66;50.71
69598;SHT31;70000;51.176;-115.568;2023-05-15T09:40:23;12.61;50.89
69598;SHT31;70000;51.176;-115.568;2023-05-15T09:43:19;12.57;51.04
69598;SHT31;70000;51.176;-115.568;2023-05-15T09:45:49;12.51;51.25
69598;SHT31;70000;51.176;-115.568;2023-05-15T09:48:21;12.44;51.39
69598;SHT31;70000;51.176;-115.568;2023-05-15T09:50:56;12.41;51.47
69598;SHT31;70000;51.176;-115.568;2023-05-15T09:53:25;12.40;51.40
69598;SHT31;70000;51.176;-115.568;2023-05-15T09:56:05;12.38;51.34
69598;SHT31;70000;51.176;-115.568;2023-05-15T09:58:37;12.33;51.39
69598;SHT31;70000;51.176;-115.568;2023-05-15T10:01:26;12.29;51.36
69598;SHT31;70000;51.176;-115.568;2023-05-15T10:04:00;12.25;51.29
69598;SHT31;70000;51.176;-115.568;2023-05-15T10:06:36;12.22;51.28
69598;SHT31;70000;51.176;-115.568;2023-05-15T10:09:29;12.20;51.22
69598;SHT31;70000;51.176;-115.568;2023-05-15T10:11:59;12.16;51.26
69598;SHT31;70000;51.176;-115.568;2023-05-15T10:14:29;12.15;51.26
69598;SHT31;70000;51.176;-115.568;2023-05-15T10:16:58;12.09;51.14
69598;SHT31;70000;51.176;-115.568;2023-05-15T10:19:38;12.07;51.12
69598;SHT31;70000;51.176;-115.568;2023-05-15T10:22:25;12.03;51.10
69598;SHT31;70000;51.176;-115.568;2023-05-15T10:28:49;11.98;51.22
69598;SHT31;70000;51.176;-115.568;2023-05-15T10:34:18;11.89;51.31
69598;SHT31;70000;51.176;-115.568;2023-05-15T10:37:07;11.85;51.38
69598;SHT31;70000;51.176;-115.568;2023-05-15T10:39:39;11.81;51.29
69598;SHT31;70000;51.176;-115.568;2023-05-15T10:42:20;11.80;51.07
69598;SHT31;70000;51.176;-115.568;2023-05-15T10:45:12;11.78;51.06
69598;SHT31;70000;51.176;-115.568;2023-05-15T10:47:42;11.74;51.17
69598;SHT31;70000;51.176;-115.568;2023-05-15T10:50:35;11.67;51.20
69598;SHT31;70000;51.176;-115.568;2023-05-15T10:53:36;11.60;51.27
69598;SHT31;70000;51.176;-115.568;2023-05-15T10:56:10;11.53;51.41
69598;SHT31;70000;51.176;-115.568;2023-05-15T10:58:47;11.46;51.64
69598;SHT31;70000;51.176;-115.568;2023-05-15T11:01:24;11.41;51.68
69598;SHT31;70000;51.176;-115.568;2023-05-15T11:07:25;11.31;52.10
69598;SHT31;70000;51.176;-115.568;2023-05-15T11:10:34;11.25;52.06
69598;SHT31;70000;51.176;-115.568;2023-05-15T11:13:21;11.21;52.09
69598;SHT31;70000;51.176;-115.568;2023-05-15T11:20:13;11.11;52.53
69598;SHT31;70000;51.176;-115.568;2023-05-15T11:22:56;11.08;52.54
69598;SHT31;70000;51.176;-115.568;2023-05-15T11:25:50;11.02;52.50
69598;SHT31;70000;51.176;-115.568;2023-05-15T11:28:54;10.99;52.43
69598;SHT31;70000;51.176;-115.568;2023-05-15T11:31:55;10.96;52.50
69598;SHT31;70000;51.176;-115.568;2023-05-15T11:34:40;10.92;52.52
69598;SHT31;70000;51.176;-115.568;2023-05-15T11:37:36;10.89;52.35
69598;SHT31;70000;51.176;-115.568;2023-05-15T11:40:59;10.86;52.35
69598;SHT31;70000;51.176;-115.568;2023-05-15T11:44:28;10.82;52.40
69598;SHT31;70000;51.176;-115.568;2023-05-15T11:47:19;10.79;52.23
69598;SHT31;70000;51.176;-115.568;2023-05-15T11:49:58;10.80;52.20
69598;SHT31;70000;51.176;-115.568;2023-05-15T11:56:45;10.72;51.98
69598;SHT31;70000;51.176;-115.568;2023-05-15T12:00:01;10.70;52.00
69598;SHT31;70000;51.176;-115.568;2023-05-15T12:06:29;10.60;51.82
69598;SHT31;70000;51.176;-115.568;2023-05-15T12:09:21;10.56;51.97
69598;SHT31;70000;51.176;-115.568;2023-05-15T12:12:01;10.53;52.08
69598;SHT31;70000;51.176;-115.568;2023-05-15T12:15:00;10.46;52.28
69598;SHT31;70000;51.176;-115.568;2023-05-15T12:17:34;10.43;52.51
69598;SHT31;70000;51.176;-115.568;2023-05-15T12:20:22;10.41;52.63
69598;SHT31;70000;51.176;-115.568;2023-05-15T12:23:16;10.39;52.77
69598;SHT31;70000;51.176;-115.568;2023-05-15T12:26:03;10.36;52.85
69598;SHT31;70000;51.176;-115.568;2023-05-15T12:28:38;10.31;52.59
69598;SHT31;70000;51.176;-115.568;2023-05-15T12:31:27;10.27;52.57
69598;SHT31;70000;51.176;-115.568;2023-05-15T12:34:33;10.25;52.70
69598;SHT31;70000;51.176;-115.568;2023-05-15T12:37:27;10.23;52.80
69598;SHT31;70000;51.176;-115.568;2023-05-15T12:40:35;10.20;52.89
69598;SHT31;70000;51.176;-115.568;2023-05-15T12:43:45;10.16;53.07
69598;SHT31;70000;51.176;-115.568;2023-05-15T12:46:58;10.13;53.11
69598;SHT31;70000;51.176;-115.568;2023-05-15T12:50:09;10.08;53.29
69598;SHT31;70000;51.176;-115.568;2023-05-15T12:53:05;10.04;53.47
69598;SHT31;70000;51.176;-115.568;2023-05-15T12:56:14;10.01;53.64
69598;SHT31;70000;51.176;-115.568;2023-05-15T12:59:33;9.98;53.80
69598;SHT31;70000;51.176;-115.568;2023-05-15T13:02:34;9.99;53.91
69598;SHT31;70000;51.176;-115.568;2023-05-15T13:05:45;10.00;53.84
69598;SHT31;70000;51.176;-115.568;2023-05-15T13:16:23;9.92;53.64
69598;SHT31;70000;51.176;-115.568;2023-05-15T13:19:05;9.92;53.67
69598;SHT31;70000;51.176;-115.568;2023-05-15T13:21:52;9.91;53.53
69598;SHT31;70000;51.176;-115.568;2023-05-15T13:24:24;9.91;53.50
69598;SHT31;70000;51.176;-115.568;2023-05-15T13:26:56;9.93;53.66
69598;SHT31;70000;51.176;-115.568;2023-05-15T13:29:48;9.93;53.88
69598;SHT31;70000;51.176;-115.568;2023-05-15T13:32:17;9.91;53.90
69598;SHT31;70000;51.176;-115.568;2023-05-15T13:35:11;9.88;54.01
69598;SHT31;70000;51.176;-115.568;2023-05-15T13:37:53;9.85;54.30
69598;SHT31;70000;51.176;-115.568;2023-05-15T13:40:31;9.81;54.48
69598;SHT31;70000;51.176;-115.568;2023-05-15T13:46:08;9.82;54.45
69598;SHT31;70000;51.176;-115.568;2023-05-15T13:48:59;9.82;54.45
69598;SHT31;70000;51.176;-115.568;2023-05-15T13:51:46;9.85;54.53
69598;SHT31;70000;51.176;-115.568;2023-05-15T13:54:52;9.85;54.43
69598;SHT31;70000;51.176;-115.568;2023-05-15T13:57:22;9.86;54.36
69598;SHT31;70000;51.176;-115.568;2023-05-15T14:00:15;9.88;54.42
69598;SHT31;70000;51.176;-115.568;2023-05-15T14:03:03;9.91;54.24
69598;SHT31;70000;51.176;-115.568;2023-05-15T14:09:25;10.05;54.53
69598;SHT31;70000;51.176;-115.568;2023-05-15T14:12:54;10.11;54.55
69598;SHT31;70000;51.176;-115.568;2023-05-15T14:19:44;10.27;54.37
69598;SHT31;70000;51.176;-115.568;2023-05-15T14:22:43;10.33;54.35
69598;SHT31;70000;51.176;-115.568;2023-05-15T14:26:04;10.38;54.22
69598;SHT31;70000;51.176;-115.568;2023-05-15T14:28:56;10.45;54.13
69598;SHT31;70000;51.176;-115.568;2023-05-15T14:31:56;10.51;53.77
69598;SHT31;70000;51.176;-115.568;2023-05-15T14:35:10;10.58;53.38
69598;SHT31;70000;51.176;-115.568;2023-05-15T14:37:48;10.65;53.24
69598;SHT31;70000;51.176;-115.568;2023-05-15T14:40:43;10.73;53.03
69598;SHT31;70000;51.176;-115.568;2023-05-15T14:44:16;10.84;52.66
69598;SHT31;70000;51.176;-115.568;2023-05-15T14:47:55;10.92;52.43
69598;SHT31;70000;51.176;-115.568;2023-05-15T14:51:09;11.00;52.30
69598;SHT31;70000;51.176;-115.568;2023-05-15T14:54:32;11.10;52.13
69598;SHT31;70000;51.176;-115.568;2023-05-15T14:57:44;11.16;51.98
69598;SHT31;70000;51.176;-115.568;2023-05-15T15:00:37;11.23;51.88
69598;SHT31;70000;51.176;-115.568;2023-05-15T15:03:18;11.31;51.72
69598;SHT31;70000;51.176;-115.568;2023-05-15T15:06:00;11.39;51.53
69598;SHT31;70000;51.176;-115.568;2023-05-15T15:08:32;11.46;51.61
69598;SHT31;70000;51.176;-115.568;2023-05-15T15:11:17;11.54;51.57
69598;SHT31;70000;51.176;-115.568;2023-05-15T15:17:23;11.71;51.40
69598;SHT31;70000;51.176;-115.568;2023-05-15T15:20:27;11.81;51.10
69598;SHT31;70000;51.176;-115.568;2023-05-15T15:26:58;11.99;51.12
69598;SHT31;70000;51.176;-115.568;2023-05-15T15:29:48;12.08;50.81
69598;SHT31;70000;51.176;-115.568;2023-05-15T15:39:29;12.39;50.38
69598;SHT31;70000;51.176;-115.568;2023-05-15T15:42:59;12.51;50.25
69598;SHT31;70000;51.176;-115.568;2023-05-15T15:57:35;12.95;49.45
69598;SHT31;70000;51.176;-115.568;2023-05-15T16:01:01;13.07;49.47
69598;SHT31;70000;51.176;-115.568;2023-05-15T16:03:41;13.18;49.38
69598;SHT31;70000;51.176;-115.568;2023-05-15T16:06:29;13.25;49.37
69598;SHT31;70000;51.176;-115.568;2023-05-15T16:12:44;13.48;49.11
69598;SHT31;70000;51.176;-115.568;2023-05-15T16:15:36;13.57;49.01
69598;SHT31;70000;51.176;-115.568;2023-05-15T16:18:29;13.65;48.83
69598;SHT31;70000;51.176;-115.568;2023-05-15T16:21:02;13.72;48.93
69598;SHT31;70000;51.176;-115.568;2023-05-15T16:23:50;13.82;48.83
69598;SHT31;70000;51.176;-115.568;2023-05-15T16:26:28;13.97;48.64
69598;SHT31;70000;51.176;-115.568;2023-05-15T16:29:06;14.06;48.65
69598;SHT31;70000;51.176;-115.568;2023-05-15T16:32:05;14.15;48.83
69598;SHT31;70000;51.176;-115.568;2023-05-15T16:34:58;14.27;48.79
69598;SHT31;70000;51.176;-115.568;2023-05-15T16:37:41;14.42;48.09
69598;SHT31;70000;51.176;-115.568;2023-05-15T16:41:08;14.57;47.88
69598;SHT31;70000;51.176;-115.568;2023-05-15T16:43:40;14.63;47.89
69598;SHT31;70000;51.176;-115.568;2023-05-15T16:46:21;14.70;48.22
69598;SHT31;70000;51.176;-115.568;2023-05-15T16:48:56;14.77;48.20
69598;SHT31;70000;51.176;-115.568;2023-05-15T16:51:25;14.85;48.17
69598;SHT31;70000;51.176;-115.568;2023-05-15T16:53:57;14.95;48.15
69598;SHT31;70000;51.176;-115.568;2023-05-15T16:56:27;15.06;47.95
69598;SHT31;70000;51.176;-115.568;2023-05-15T16:58:56;15.13;47.65
69598;SHT31;70000;51.176;-115.568;2023-05-15T17:01:39;15.29;47.17
69598;SHT31;70000;51.176;-115.568;2023-05-15T17:04:15;15.41;46.91
69598;SHT31;70000;51.176;-115.568;2023-05-15T17:06:47;15.48;46.83
69598;SHT31;70000;51.176;-115.568;2023-05-15T17:09:16;15.60;46.22
69598;SHT31;70000;51.176;-115.568;2023-05-15T17:11:45;15.79;46.05
69598;SHT31;70000;51.176;-115.568;2023-05-15T17:14:14;15.88;45.88
69598;SHT31;70000;51.176;-115.568;2023-05-15T17:16:43;15.97;45.63
69598;SHT31;70000;51.176;-115.568;2023-05-15T17:19:12;16.03;45.51
69598;SHT31;70000;51.176;-115.568;2023-05-15T17:21:42;16.08;45.64
69598;SHT31;70000;51.176;-115.568;2023-05-15T17:24:11;16.13;45.45
69598;SHT31;70000;51.176;-115.568;2023-05-15T17:26:42;16.19;45.32
69598;SHT31;70000;51.176;-115.568;2023-05-15T17:29:11;16.29;45.11
69598;SHT31;70000;51.176;-115.568;2023-05-15T17:31:46;16.42;44.77
69598;SHT31;70000;51.176;-115.568;2023-05-15T17:34:18;16.50;44.84
69598;SHT31;70000;51.176;-115.568;2023-05-15T17:36:50;16.59;44.92
69598;SHT31;70000;51.176;-115.568;2023-05-15T17:39:23;16.75;43.67
69598;SHT31;70000;51.176;-115.568;2023-05-15T17:41:52;16.93;43.48
69598;SHT31;70000;51.176;-115.568;2023-05-15T17:44:22;17.09;43.08
69598;SHT31;70000;51.176;-115.568;2023-05-15T17:47:03;17.19;42.89
69598;SHT31;70000;51.176;-115.568;2023-05-15T17:49:41;17.27;42.57
69598;SHT31;70000;51.176;-115.568;2023-05-15T17:52:15;17.39;42.01
69598;SHT31;70000;51.176;-115.568;2023-05-15T17:54:47;17.54;41.38
69598;SHT31;70000;51.176;-115.568;2023-05-15T17:57:16;17.76;40.46
69598;SHT31;70000;51.176;-115.568;2023-05-15T17:59:54;17.91;39.85
69598;SHT31;70000;51.176;-115.568;2023-05-15T18:02:29;18.00;39.99
69598;SHT31;70000;51.176;-115.568;2023-05-15T18:05:03;18.03;39.93
69598;SHT31;70000;51.176;-115.568;2023-05-15T18:08:21;18.08;40.07
69598;SHT31;70000;51.176;-115.568;2023-05-15T18:11:08;18.13;40.34
69598;SHT31;70000;51.176;-115.568;2023-05-15T18:13:48;18.21;40.31
69598;SHT31;70000;51.176;-115.568;2023-05-15T18:16:41;18.33;39.27
69598;SHT31;70000;51.176;-115.568;2023-05-15T18:19:13;18.44;39.12
69598;SHT31;70000;51.176;-115.568;2023-05-15T18:21:46;18.52;39.05
69598;SHT31;70000;51.176;-115.568;2023-05-15T18:24:15;18.65;38.67
69598;SHT31;70000;51.176;-115.568;2023-05-15T18:26:44;18.79;38.52
69598;SHT31;70000;51.176;-115.568;2023-05-15T18:29:16;18.86;38.50
69598;SHT31;70000;51.176;-115.568;2023-05-15T18:31:45;18.95;38.29
69598;SHT31;70000;51.176;-115.568;2023-05-15T18:34:26;19.07;38.08
69598;SHT31;70000;51.176;-115.568;2023-05-15T18:36:55;19.16;38.28
69598;SHT31;70000;51.176;-115.568;2023-05-15T18:39:24;19.26;38.29
69598;SHT31;70000;51.176;-115.568;2023-05-15T18:42:02;19.34;37.06
69598;SHT31;70000;51.176;-115.568;2023-05-15T18:44:32;19.42;36.86
69598;SHT31;70000;51.176;-115.568;2023-05-15T18:47:02;19.58;36.29
69598;SHT31;70000;51.176;-115.568;2023-05-15T18:49:35;19.70;35.97
69598;SHT31;70000;51.176;-115.568;2023-05-15T18:52:08;19.75;36.10
69598;SHT31;70000;51.176;-115.568;2023-05-15T18:54:45;19.80;36.34
69598;SHT31;70000;51.176;-115.568;2023-05-15T18:57:21;19.82;36.32
69598;SHT31;70000;51.176;-115.568;2023-05-15T18:59:51;19.88;35.76
69598;SHT31;70000;51.176;-115.568;2023-05-15T19:02:26;19.98;34.93
69598;SHT31;70000;51.176;-115.568;2023-05-15T19:05:05;20.14;34.28
69598;SHT31;70000;51.176;-115.568;2023-05-15T19:08:39;20.27;34.46
69598;SHT31;70000;51.176;-115.568;2023-05-15T19:11:22;20.34;34.71
69598;SHT31;70000;51.176;-115.568;2023-05-15T19:13:54;20.45;33.51
69598;SHT31;70000;51.176;-115.568;2023-05-15T19:16:43;20.56;32.86
69598;SHT31;70000;51.176;-115.568;2023-05-15T19:19:13;20.66;31.82
69598;SHT31;70000;51.176;-115.568;2023-05-15T19:21:52;20.81;30.93
69598;SHT31;70000;51.176;-115.568;2023-05-15T19:24:21;20.89;31.58
69598;SHT31;70000;51.176;-115.568;2023-05-15T19:26:51;20.93;30.81
69598;SHT31;70000;51.176;-115.568;2023-05-15T19:29:43;21.01;31.22